Huvudsida
METAR-TAF:

METAR-TAF

Flygplatser :

Ferrara, Italien

latitud: 44-50N, longitud: 011-37E, höjd: 10 m

Aktuellt väderrapport

Denna rapport gjordes för 4 timmar och 15 minuter sedan, klockan 17:55 UTC
Vind 3 kt från nord/nordost
Temperatur 9°C
Fuktighet 93%
Tryck 1010 hPa
Sikt: 8000 m
Brutna moln på en höjd av 4000 ft

METAR: LIPF 111755Z 02003KT 8000 BKN040 09/08 Q1010 RMK BKN VIS MIN 8000

Tid: 23:10 (22:10 UTC)


TAF: saknas

Aktuella väderrapporter och prognoser från 4000 flygplatser (METAR- och TAF-rapporter).

De tillgängliga stationerna syns som gula och röda prickar på kartan.

För musen över prickarna för att se namnen på stationerna.

Klicka sedan för att få väderrapporter och prognoser.

För att ändra kartan: Klicka på de gröna knapparna med ett svart kors på för att zooma in; den gröna knappen med ett streck på för att zooma ut; eller på de gröna pilarna för angränsande kartor.


METAR-TAF: